Time;durP1;ratioP1;P1;durP2;ratioP2;P2;SDS_P1;SDS_P2;PMS_P1;PMS_P2;Temp;Humidity;BMP_temperature;BMP_pressure;BME280_temperature;BME280_humidity;BME280_pressure;Samples;Min_cycle;Max_cycle;Signal;HPM_P1;HPM_P2
2023/08/18 00:00:49;;;;;;;14.20;5.53;;;;;;;;;;5065443;28;20048;-74
2023/08/18 00:03:19;;;;;;;17.08;4.75;;;;;;;;;;5065316;28;20053;-74
2023/08/18 00:05:50;;;;;;;14.35;4.97;;;;;;;;;;5065276;28;20410;-74
2023/08/18 00:08:21;;;;;;;17.63;5.05;;;;;;;;;;5065963;28;20044;-73
2023/08/18 00:10:51;;;;;;;19.20;5.35;;;;;;;;;;5065037;28;20063;-75
2023/08/18 00:13:23;;;;;;;11.98;5.05;;;;;;;;;;5065397;28;20076;-74
2023/08/18 00:15:53;;;;;;;20.45;5.22;;;;;;;;;;5064979;28;20053;-75
2023/08/18 00:18:24;;;;;;;11.18;5.32;;;;;;;;;;5065408;28;20051;-74
2023/08/18 00:20:54;;;;;;;17.08;4.93;;;;;;;;;;5065388;28;20068;-74
2023/08/18 00:23:25;;;;;;;12.40;5.30;;;;;;;;;;5065933;28;20055;-73
2023/08/18 00:25:55;;;;;;;18.77;5.22;;;;;;;;;;5064855;28;20423;-74
2023/08/18 00:28:26;;;;;;;12.48;4.32;;;;;;;;;;5064736;28;20362;-73
2023/08/18 00:30:56;;;;;;;14.50;4.57;;;;;;;;;;5064803;28;20119;-75
2023/08/18 00:33:27;;;;;;;8.20;4.30;;;;;;;;;;5062788;28;20048;-75
2023/08/18 00:35:59;;;;;;;15.65;4.80;;;;;;;;;;5064808;28;20048;-74
2023/08/18 00:38:30;;;;;;;9.77;4.50;;;;;;;;;;5063470;28;20040;-73
2023/08/18 00:41:01;;;;;;;10.82;4.80;;;;;;;;;;5062755;28;20048;-75
2023/08/18 00:43:30;;;;;;;18.27;5.05;;;;;;;;;;5064701;28;20048;-74
2023/08/18 00:46:01;;;;;;;22.77;5.47;;;;;;;;;;5063062;28;20075;-73
2023/08/18 00:48:31;;;;;;;19.30;4.80;;;;;;;;;;5064244;28;20049;-75
2023/08/18 00:51:05;;;;;;;23.20;4.75;;;;;;;;;;5062661;28;20083;-73
2023/08/18 00:53:36;;;;;;;20.30;5.13;;;;;;;;;;5064291;28;20044;-74
2023/08/18 00:56:10;;;;;;;12.98;4.95;;;;;;;;;;5063744;28;20463;-74
2023/08/18 00:58:41;;;;;;;27.77;5.68;;;;;;;;;;5063555;28;20067;-74
2023/08/18 01:01:13;;;;;;;15.48;5.32;;;;;;;;;;5062748;28;20049;-74
2023/08/18 01:03:44;;;;;;;16.55;4.22;;;;;;;;;;5062086;28;20049;-74
2023/08/18 01:06:15;;;;;;;18.73;4.97;;;;;;;;;;5062733;28;20055;-73
2023/08/18 01:08:45;;;;;;;21.58;5.00;;;;;;;;;;5063079;28;20053;-73
2023/08/18 01:11:48;;;;;;;16.55;5.20;;;;;;;;;;5064112;28;20056;-75
2023/08/18 01:14:33;;;;;;;15.07;5.20;;;;;;;;;;5064327;28;20541;-74
2023/08/18 01:17:11;;;;;;;21.38;5.47;;;;;;;;;;5062846;28;20048;-74
2023/08/18 01:19:43;;;;;;;15.13;4.93;;;;;;;;;;5064525;28;20399;-74
2023/08/18 01:22:18;;;;;;;18.10;5.43;;;;;;;;;;5062469;28;20063;-74
2023/08/18 01:24:48;;;;;;;13.85;5.07;;;;;;;;;;5064529;28;20056;-74
2023/08/18 01:27:18;;;;;;;15.10;5.32;;;;;;;;;;5062730;28;20429;-75
2023/08/18 01:29:48;;;;;;;20.67;5.88;;;;;;;;;;5064058;28;20307;-73
2023/08/18 01:32:20;;;;;;;10.38;4.57;;;;;;;;;;5061475;28;20423;-74
2023/08/18 01:34:52;;;;;;;11.15;4.80;;;;;;;;;;5061448;28;20044;-75
2023/08/18 01:37:23;;;;;;;15.05;4.65;;;;;;;;;;5062482;28;20040;-73
2023/08/18 01:39:55;;;;;;;18.05;5.55;;;;;;;;;;5062968;28;20534;-75
2023/08/18 01:42:27;;;;;;;12.18;5.43;;;;;;;;;;5064123;28;20610;-75
2023/08/18 01:45:04;;;;;;;20.48;5.80;;;;;;;;;;5060743;28;20055;-75
2023/08/18 01:47:34;;;;;;;15.23;5.45;;;;;;;;;;5063163;28;20048;-75
2023/08/18 01:50:04;;;;;;;22.10;5.78;;;;;;;;;;5062499;28;20049;-74
2023/08/18 01:52:36;;;;;;;26.45;6.53;;;;;;;;;;5060122;28;20041;-74
2023/08/18 01:55:07;;;;;;;17.88;6.20;;;;;;;;;;5043022;28;20068;-75
2023/08/18 01:57:41;;;;;;;13.07;5.93;;;;;;;;;;5062035;28;20040;-74
2023/08/18 02:00:11;;;;;;;14.40;6.00;;;;;;;;;;5059732;28;20549;-73
2023/08/18 02:02:49;;;;;;;17.83;6.25;;;;;;;;;;5061246;28;20044;-75
2023/08/18 02:05:20;;;;;;;10.25;5.75;;;;;;;;;;5062139;28;20427;-74
2023/08/18 02:07:52;;;;;;;12.55;6.07;;;;;;;;;;5061327;28;20057;-75
2023/08/18 02:10:22;;;;;;;13.90;6.40;;;;;;;;;;5060969;28;20083;-73
2023/08/18 02:12:52;;;;;;;14.88;6.10;;;;;;;;;;5062766;28;20098;-75
2023/08/18 02:15:23;;;;;;;11.10;6.20;;;;;;;;;;5061923;28;20048;-75
2023/08/18 02:17:54;;;;;;;10.45;6.55;;;;;;;;;;5063738;28;20059;-75
2023/08/18 02:20:25;;;;;;;14.60;6.90;;;;;;;;;;5062322;28;20541;-73
2023/08/18 02:22:56;;;;;;;20.55;6.90;;;;;;;;;;5063214;28;20071;-76
2023/08/18 02:25:28;;;;;;;19.30;6.28;;;;;;;;;;5061325;28;20502;-73
2023/08/18 02:27:59;;;;;;;15.43;6.68;;;;;;;;;;5062332;28;20045;-75
2023/08/18 02:30:30;;;;;;;14.98;5.60;;;;;;;;;;5060562;28;20060;-75
2023/08/18 02:33:01;;;;;;;20.88;6.82;;;;;;;;;;5062560;28;20381;-75
2023/08/18 02:35:31;;;;;;;13.25;6.97;;;;;;;;;;5062720;28;20044;-74
2023/08/18 02:38:02;;;;;;;16.98;7.43;;;;;;;;;;5062306;28;20053;-76
2023/08/18 02:40:35;;;;;;;16.17;7.15;;;;;;;;;;5062569;28;20055;-75
2023/08/18 02:43:06;;;;;;;19.13;6.85;;;;;;;;;;5060420;28;20427;-74
2023/08/18 02:45:36;;;;;;;19.70;7.22;;;;;;;;;;5062301;28;20060;-75
2023/08/18 02:48:07;;;;;;;14.55;6.18;;;;;;;;;;5061352;28;20052;-75
2023/08/18 02:50:39;;;;;;;21.00;7.18;;;;;;;;;;5062338;28;20045;-74
2023/08/18 02:53:11;;;;;;;18.15;6.90;;;;;;;;;;5061020;28;20052;-75
2023/08/18 02:55:42;;;;;;;23.00;7.07;;;;;;;;;;5061620;28;20052;-74
2023/08/18 02:58:18;;;;;;;16.42;7.25;;;;;;;;;;5062571;28;20071;-73
2023/08/18 03:00:48;;;;;;;15.75;6.50;;;;;;;;;;5060058;28;20503;-74
2023/08/18 03:03:19;;;;;;;22.10;7.03;;;;;;;;;;5060589;28;20085;-74
2023/08/18 03:05:50;;;;;;;20.73;7.00;;;;;;;;;;5062094;28;20055;-74
2023/08/18 03:08:22;;;;;;;13.65;7.10;;;;;;;;;;5061584;28;20052;-75
2023/08/18 03:10:58;;;;;;;16.40;6.57;;;;;;;;;;5059952;28;20597;-74
2023/08/18 03:13:29;;;;;;;14.63;6.72;;;;;;;;;;5062585;28;20048;-74
2023/08/18 03:16:00;;;;;;;22.02;6.72;;;;;;;;;;5059458;28;20048;-74
2023/08/18 03:18:32;;;;;;;25.98;8.40;;;;;;;;;;5061609;28;20059;-75
2023/08/18 03:21:03;;;;;;;16.02;6.68;;;;;;;;;;5062124;28;20067;-74
2023/08/18 03:23:34;;;;;;;17.08;7.00;;;;;;;;;;5059785;28;20049;-75
2023/08/18 03:26:05;;;;;;;26.80;7.05;;;;;;;;;;5062990;28;20044;-73
2023/08/18 03:28:38;;;;;;;18.98;7.65;;;;;;;;;;5060897;28;20063;-73
2023/08/18 03:31:09;;;;;;;27.23;7.55;;;;;;;;;;5061672;28;20040;-75
2023/08/18 03:33:40;;;;;;;17.88;6.88;;;;;;;;;;5060288;28;20057;-73
2023/08/18 03:36:14;;;;;;;20.85;7.20;;;;;;;;;;5060369;28;20053;-74
2023/08/18 03:38:46;;;;;;;14.88;6.85;;;;;;;;;;5060332;28;20056;-74
2023/08/18 03:41:16;;;;;;;12.85;5.93;;;;;;;;;;5060107;28;20507;-74
2023/08/18 03:43:46;;;;;;;17.15;6.63;;;;;;;;;;5061732;28;20045;-73
2023/08/18 03:46:26;;;;;;;23.77;6.47;;;;;;;;;;5060431;28;20048;-73
2023/08/18 03:48:59;;;;;;;16.65;6.28;;;;;;;;;;5061220;28;20106;-74
2023/08/18 03:51:30;;;;;;;15.55;6.43;;;;;;;;;;5061583;28;20425;-74
2023/08/18 03:54:00;;;;;;;14.52;6.45;;;;;;;;;;5060231;28;20044;-73
2023/08/18 03:56:31;;;;;;;18.70;7.07;;;;;;;;;;5060317;28;20056;-73
2023/08/18 03:59:01;;;;;;;15.25;7.20;;;;;;;;;;5061189;28;20041;-73
2023/08/18 04:01:32;;;;;;;17.38;7.07;;;;;;;;;;5061873;28;20407;-72
2023/08/18 04:04:04;;;;;;;13.85;6.47;;;;;;;;;;5061746;28;20087;-75
2023/08/18 04:06:34;;;;;;;15.02;7.20;;;;;;;;;;5059229;28;20052;-73
2023/08/18 04:09:08;;;;;;;14.93;6.88;;;;;;;;;;5061753;28;20055;-74
2023/08/18 04:11:39;;;;;;;14.98;6.78;;;;;;;;;;5059667;28;20064;-73
2023/08/18 04:14:11;;;;;;;14.02;6.68;;;;;;;;;;5059604;28;20045;-74
2023/08/18 04:16:42;;;;;;;14.13;6.75;;;;;;;;;;5061186;28;20423;-73
2023/08/18 04:19:13;;;;;;;16.13;6.43;;;;;;;;;;5059851;28;20056;-74
2023/08/18 04:21:44;;;;;;;14.25;6.28;;;;;;;;;;5059723;28;20056;-73
2023/08/18 04:24:14;;;;;;;15.95;6.43;;;;;;;;;;5061736;28;20048;-73
2023/08/18 04:26:44;;;;;;;12.98;7.00;;;;;;;;;;5061028;28;20051;-75
2023/08/18 04:29:15;;;;;;;12.00;6.80;;;;;;;;;;5059901;28;20055;-74
2023/08/18 04:31:46;;;;;;;12.70;6.93;;;;;;;;;;5059659;28;20057;-74
2023/08/18 04:34:21;;;;;;;18.30;6.63;;;;;;;;;;5059411;28;20044;-75
2023/08/18 04:36:51;;;;;;;14.65;6.80;;;;;;;;;;5059103;28;20060;-74
2023/08/18 04:39:22;;;;;;;13.38;6.35;;;;;;;;;;5059125;28;20411;-74
2023/08/18 04:41:53;;;;;;;15.40;6.55;;;;;;;;;;5060709;28;20859;-74
2023/08/18 04:44:24;;;;;;;10.23;6.90;;;;;;;;;;5063057;28;20048;-72
2023/08/18 04:46:54;;;;;;;12.80;6.28;;;;;;;;;;5065477;28;20048;-74
2023/08/18 04:49:25;;;;;;;11.65;6.25;;;;;;;;;;5063748;28;20423;-74
2023/08/18 04:51:57;;;;;;;12.93;6.55;;;;;;;;;;5046820;28;20057;-73
2023/08/18 04:54:29;;;;;;;13.32;6.05;;;;;;;;;;5062467;28;20396;-73
2023/08/18 04:57:00;;;;;;;12.15;6.43;;;;;;;;;;5063246;28;20118;-74
2023/08/18 04:59:30;;;;;;;14.48;7.30;;;;;;;;;;5062484;28;20438;-74
2023/08/18 05:02:04;;;;;;;12.63;6.20;;;;;;;;;;5062623;28;20068;-73
2023/08/18 05:04:36;;;;;;;11.07;6.50;;;;;;;;;;5062637;28;20060;-74
2023/08/18 05:07:06;;;;;;;13.40;6.35;;;;;;;;;;5064568;28;20079;-73
2023/08/18 05:09:36;;;;;;;14.10;6.38;;;;;;;;;;5062183;28;20053;-74
2023/08/18 05:12:08;;;;;;;14.75;6.80;;;;;;;;;;5063806;28;20052;-75
2023/08/18 05:14:38;;;;;;;14.05;7.35;;;;;;;;;;5063219;28;20049;-75
2023/08/18 05:17:08;;;;;;;12.38;6.68;;;;;;;;;;5064831;28;20049;-73
2023/08/18 05:19:39;;;;;;;10.73;6.47;;;;;;;;;;5064373;28;20059;-72
2023/08/18 05:22:11;;;;;;;11.82;6.70;;;;;;;;;;5062933;28;20060;-73
2023/08/18 05:24:41;;;;;;;11.27;6.68;;;;;;;;;;5062756;28;21082;-73
2023/08/18 05:27:11;;;;;;;11.85;7.20;;;;;;;;;;5063012;28;20057;-73
2023/08/18 05:29:41;;;;;;;14.25;6.65;;;;;;;;;;5063534;28;20625;-74
2023/08/18 05:32:11;;;;;;;12.63;7.07;;;;;;;;;;5064469;28;20064;-74
2023/08/18 05:34:42;;;;;;;13.38;7.35;;;;;;;;;;5063705;28;20044;-76
2023/08/18 05:37:13;;;;;;;11.60;7.18;;;;;;;;;;5062597;28;20060;-71
2023/08/18 05:39:43;;;;;;;15.93;7.35;;;;;;;;;;5063936;28;20055;-73
2023/08/18 05:42:13;;;;;;;15.95;7.63;;;;;;;;;;5063767;28;20049;-73
2023/08/18 05:44:44;;;;;;;16.20;7.13;;;;;;;;;;5063578;28;20037;-72
2023/08/18 05:47:22;;;;;;;16.90;7.10;;;;;;;;;;5063233;28;20044;-74
2023/08/18 05:49:53;;;;;;;11.35;7.22;;;;;;;;;;5063407;28;20057;-76
2023/08/18 05:52:23;;;;;;;11.10;7.20;;;;;;;;;;5063903;28;20052;-75
2023/08/18 05:54:56;;;;;;;11.77;7.32;;;;;;;;;;5061186;28;20064;-75
2023/08/18 05:57:27;;;;;;;16.95;7.22;;;;;;;;;;5063366;28;20059;-75
2023/08/18 05:59:58;;;;;;;14.73;6.95;;;;;;;;;;5063133;28;20048;-75
2023/08/18 06:02:28;;;;;;;10.90;6.72;;;;;;;;;;5063560;28;20044;-75
2023/08/18 06:05:00;;;;;;;16.05;6.90;;;;;;;;;;5063387;28;20060;-75
2023/08/18 06:07:32;;;;;;;15.15;7.30;;;;;;;;;;5063127;28;20048;-75
2023/08/18 06:10:04;;;;;;;14.82;6.93;;;;;;;;;;5062824;28;20636;-74
2023/08/18 06:12:34;;;;;;;11.73;6.90;;;;;;;;;;5063870;28;20052;-76
2023/08/18 06:15:12;;;;;;;13.27;7.75;;;;;;;;;;5061655;28;20052;-76
2023/08/18 06:17:44;;;;;;;9.95;6.93;;;;;;;;;;5063630;28;20045;-75
2023/08/18 06:20:14;;;;;;;11.80;7.43;;;;;;;;;;5063205;28;20044;-76
2023/08/18 06:22:44;;;;;;;11.38;7.28;;;;;;;;;;5062338;28;20044;-75
2023/08/18 06:25:15;;;;;;;12.20;6.97;;;;;;;;;;5062720;28;20055;-76
2023/08/18 06:27:46;;;;;;;12.88;7.40;;;;;;;;;;5063288;28;20507;-74
2023/08/18 06:30:16;;;;;;;12.95;7.20;;;;;;;;;;5063173;28;20044;-75
2023/08/18 06:32:46;;;;;;;10.05;7.10;;;;;;;;;;5062757;28;20733;-75
2023/08/18 06:35:16;;;;;;;9.40;6.85;;;;;;;;;;5062870;28;20041;-74
2023/08/18 06:37:46;;;;;;;14.45;7.50;;;;;;;;;;5063111;28;20049;-75
2023/08/18 06:40:17;;;;;;;20.83;8.45;;;;;;;;;;5062646;28;20033;-75
2023/08/18 06:42:49;;;;;;;13.75;7.85;;;;;;;;;;5061167;28;20055;-75
2023/08/18 06:45:19;;;;;;;14.30;7.68;;;;;;;;;;5062684;28;20813;-74
2023/08/18 06:47:49;;;;;;;11.50;7.85;;;;;;;;;;5062680;28;20511;-74
2023/08/18 06:50:20;;;;;;;11.52;7.63;;;;;;;;;;5063171;28;20053;-74
2023/08/18 06:52:50;;;;;;;16.10;7.72;;;;;;;;;;5062913;28;20059;-74
2023/08/18 06:55:22;;;;;;;13.45;7.43;;;;;;;;;;5061952;28;20044;-76
2023/08/18 06:58:19;;;;;;;14.68;7.75;;;;;;;;;;5061506;28;20049;-75
2023/08/18 07:00:52;;;;;;;15.18;7.78;;;;;;;;;;5061809;28;20045;-75
2023/08/18 07:03:23;;;;;;;15.77;7.82;;;;;;;;;;5062222;28;20396;-74
2023/08/18 07:05:55;;;;;;;12.07;7.38;;;;;;;;;;5061099;28;20048;-75
2023/08/18 07:08:26;;;;;;;16.23;7.88;;;;;;;;;;5062186;28;20041;-75
2023/08/18 07:10:56;;;;;;;11.35;7.53;;;;;;;;;;5060785;28;20361;-75
2023/08/18 07:13:28;;;;;;;9.65;6.93;;;;;;;;;;5060188;28;20053;-75
2023/08/18 07:15:59;;;;;;;13.05;7.40;;;;;;;;;;5062261;28;20053;-75
2023/08/18 07:18:29;;;;;;;14.43;7.20;;;;;;;;;;5062938;28;20415;-76
2023/08/18 07:20:59;;;;;;;14.90;7.97;;;;;;;;;;5061312;28;20051;-75
2023/08/18 07:23:30;;;;;;;13.85;7.20;;;;;;;;;;5061562;28;20052;-74
2023/08/18 07:26:03;;;;;;;14.05;6.72;;;;;;;;;;5062134;28;20106;-75
2023/08/18 07:28:33;;;;;;;13.85;7.32;;;;;;;;;;5060397;28;20063;-74
2023/08/18 07:31:05;;;;;;;11.40;7.32;;;;;;;;;;5062316;28;20055;-75
2023/08/18 07:33:36;;;;;;;8.95;6.60;;;;;;;;;;5061431;28;20538;-74
2023/08/18 07:36:07;;;;;;;11.63;7.50;;;;;;;;;;5061543;28;20055;-75
2023/08/18 07:38:38;;;;;;;14.13;8.00;;;;;;;;;;5060358;28;20135;-74
2023/08/18 07:41:08;;;;;;;12.18;7.28;;;;;;;;;;5061526;28;20048;-74
2023/08/18 07:43:39;;;;;;;13.85;7.18;;;;;;;;;;5061526;28;20052;-75
2023/08/18 07:46:10;;;;;;;12.15;7.40;;;;;;;;;;5060951;28;20052;-75
2023/08/18 07:48:43;;;;;;;10.80;7.13;;;;;;;;;;5061511;28;20053;-74
2023/08/18 07:51:13;;;;;;;13.60;7.60;;;;;;;;;;5061568;28;20044;-75
2023/08/18 07:53:43;;;;;;;19.10;8.13;;;;;;;;;;5061984;28;20410;-76
2023/08/18 07:56:14;;;;;;;13.20;7.05;;;;;;;;;;5061725;28;20041;-74
2023/08/18 07:58:51;;;;;;;11.70;8.10;;;;;;;;;;5061476;28;20052;-76
2023/08/18 08:01:25;;;;;;;14.45;9.00;;;;;;;;;;5061973;28;20048;-77
2023/08/18 08:03:56;;;;;;;17.17;9.55;;;;;;;;;;5061983;28;20051;-75
2023/08/18 08:06:27;;;;;;;13.70;8.25;;;;;;;;;;5061883;28;20898;-74
2023/08/18 08:08:58;;;;;;;16.15;9.00;;;;;;;;;;5060612;28;20044;-75
2023/08/18 08:11:28;;;;;;;23.60;8.85;;;;;;;;;;5061899;28;20049;-76
2023/08/18 08:13:58;;;;;;;21.55;8.93;;;;;;;;;;5060703;28;20427;-74
2023/08/18 08:16:30;;;;;;;16.80;8.30;;;;;;;;;;5044242;28;20048;-75
2023/08/18 08:19:00;;;;;;;27.17;10.50;;;;;;;;;;5065519;28;20048;-74
2023/08/18 08:21:31;;;;;;;21.95;9.55;;;;;;;;;;5065053;28;20071;-75
2023/08/18 08:24:06;;;;;;;18.45;10.13;;;;;;;;;;5065006;28;20044;-75
2023/08/18 08:26:38;;;;;;;17.60;9.38;;;;;;;;;;5065637;28;20083;-75
2023/08/18 08:29:08;;;;;;;20.88;10.05;;;;;;;;;;5065341;28;20083;-76
2023/08/18 08:31:38;;;;;;;18.08;9.73;;;;;;;;;;5064898;28;20779;-74
2023/08/18 08:34:09;;;;;;;21.10;9.90;;;;;;;;;;5065038;28;20056;-75
2023/08/18 08:36:39;;;;;;;16.00;9.23;;;;;;;;;;5065197;28;20043;-77
2023/08/18 08:39:10;;;;;;;19.30;10.07;;;;;;;;;;5065377;28;20037;-76
2023/08/18 08:41:41;;;;;;;19.40;9.85;;;;;;;;;;5065480;28;20055;-75
2023/08/18 08:44:13;;;;;;;19.23;9.80;;;;;;;;;;5065908;28;20049;-75
2023/08/18 08:46:45;;;;;;;22.52;9.80;;;;;;;;;;5065129;28;20048;-75
2023/08/18 08:49:17;;;;;;;21.10;9.88;;;;;;;;;;5064628;28;20048;-74
2023/08/18 08:51:50;;;;;;;20.88;9.48;;;;;;;;;;5064855;28;20056;-75
2023/08/18 08:54:24;;;;;;;18.75;9.02;;;;;;;;;;5064336;28;20553;-75
2023/08/18 08:56:55;;;;;;;23.75;9.65;;;;;;;;;;5064874;28;20056;-76
2023/08/18 08:59:26;;;;;;;18.92;8.88;;;;;;;;;;5063929;28;20064;-75
2023/08/18 09:01:56;;;;;;;15.93;7.70;;;;;;;;;;5064502;28;20419;-78
2023/08/18 09:04:26;;;;;;;21.60;9.38;;;;;;;;;;5064208;28;20048;-75
2023/08/18 09:06:57;;;;;;;18.73;8.90;;;;;;;;;;5064149;28;20056;-76
2023/08/18 09:09:28;;;;;;;18.90;8.02;;;;;;;;;;5064351;28;20045;-77
2023/08/18 09:12:02;;;;;;;16.02;7.35;;;;;;;;;;5064580;28;20068;-76
2023/08/18 09:14:34;;;;;;;15.60;7.15;;;;;;;;;;5064828;28;20049;-74
2023/08/18 09:17:05;;;;;;;14.60;7.22;;;;;;;;;;5063478;28;20037;-76
2023/08/18 09:19:38;;;;;;;15.18;7.57;;;;;;;;;;5064865;28;20036;-75
2023/08/18 09:22:10;;;;;;;16.60;7.28;;;;;;;;;;5063854;28;20508;-75
2023/08/18 09:24:40;;;;;;;15.40;7.07;;;;;;;;;;5064132;28;20059;-75
2023/08/18 09:27:14;;;;;;;13.02;6.57;;;;;;;;;;5062384;28;20434;-76
2023/08/18 09:29:45;;;;;;;16.80;7.47;;;;;;;;;;5062988;28;20491;-76
2023/08/18 09:32:17;;;;;;;14.25;6.63;;;;;;;;;;5063548;28;20059;-76
2023/08/18 09:34:48;;;;;;;16.75;6.90;;;;;;;;;;5063883;28;20415;-75
2023/08/18 09:37:33;;;;;;;17.55;7.75;;;;;;;;;;5062557;28;20126;-76
2023/08/18 09:40:04;;;;;;;19.23;7.93;;;;;;;;;;5063835;28;20059;-75
2023/08/18 09:42:35;;;;;;;22.48;8.35;;;;;;;;;;5064569;28;20043;-73
2023/08/18 09:45:06;;;;;;;16.58;8.55;;;;;;;;;;5065108;28;20048;-74
2023/08/18 09:47:44;;;;;;;16.23;7.90;;;;;;;;;;5063788;28;20571;-75
2023/08/18 09:50:16;;;;;;;17.80;8.18;;;;;;;;;;5064198;28;20049;-75
2023/08/18 09:52:52;;;;;;;18.95;8.30;;;;;;;;;;5063699;28;20055;-78
2023/08/18 09:55:34;;;;;;;19.35;8.40;;;;;;;;;;5062844;28;20419;-76
2023/08/18 09:58:23;;;;;;;15.98;8.23;;;;;;;;;;5063633;28;20047;-77
2023/08/18 10:00:56;;;;;;;16.20;7.85;;;;;;;;;;5063305;28;20041;-74
2023/08/18 10:03:30;;;;;;;20.52;8.55;;;;;;;;;;5045793;28;20048;-74
2023/08/18 10:06:01;;;;;;;19.58;9.07;;;;;;;;;;5063374;28;20547;-75
2023/08/18 10:08:32;;;;;;;20.33;9.13;;;;;;;;;;5063193;28;20044;-75
2023/08/18 10:11:04;;;;;;;16.80;9.18;;;;;;;;;;5062901;28;20052;-77
2023/08/18 10:13:37;;;;;;;16.25;8.68;;;;;;;;;;5063427;28;20052;-75
2023/08/18 10:16:15;;;;;;;17.85;9.25;;;;;;;;;;5062933;28;20048;-73
2023/08/18 10:18:45;;;;;;;22.08;9.60;;;;;;;;;;5061529;28;20056;-75
2023/08/18 10:21:15;;;;;;;21.52;9.38;;;;;;;;;;5062986;28;20056;-75
2023/08/18 10:23:47;;;;;;;22.25;8.82;;;;;;;;;;5061265;28;20052;-75
2023/08/18 10:26:17;;;;;;;17.35;8.50;;;;;;;;;;5062849;28;20052;-74
2023/08/18 10:28:47;;;;;;;21.60;9.77;;;;;;;;;;5061675;28;20067;-74
2023/08/18 10:31:20;;;;;;;26.13;9.82;;;;;;;;;;5063395;28;20049;-74
2023/08/18 10:33:55;;;;;;;20.05;9.75;;;;;;;;;;5062585;28;20052;-74
2023/08/18 10:36:26;;;;;;;19.48;8.88;;;;;;;;;;5062592;28;20525;-79
2023/08/18 10:39:26;;;;;;;21.88;9.20;;;;;;;;;;5062311;28;20048;-75
2023/08/18 10:42:10;;;;;;;28.75;8.55;;;;;;;;;;5062676;28;20040;-75
2023/08/18 10:44:58;;;;;;;16.75;8.35;;;;;;;;;;5063077;28;20510;-75
2023/08/18 10:47:34;;;;;;;14.35;7.10;;;;;;;;;;5062522;28;20055;-75
2023/08/18 10:50:06;;;;;;;16.38;8.05;;;;;;;;;;5060479;28;20056;-75
2023/08/18 10:52:36;;;;;;;17.05;7.20;;;;;;;;;;5062201;28;20487;-74
2023/08/18 10:55:09;;;;;;;13.80;8.13;;;;;;;;;;5062203;28;20052;-74
2023/08/18 10:57:39;;;;;;;10.65;6.72;;;;;;;;;;5059743;28;20606;-75
2023/08/18 11:00:17;;;;;;;18.23;6.82;;;;;;;;;;5062128;28;20435;-73
2023/08/18 11:02:50;;;;;;;14.25;7.35;;;;;;;;;;5060590;28;20051;-74
2023/08/18 11:05:23;;;;;;;11.50;6.57;;;;;;;;;;5062591;28;20041;-75
2023/08/18 11:07:53;;;;;;;11.63;6.95;;;;;;;;;;5062127;28;20055;-76
2023/08/18 11:10:25;;;;;;;18.23;8.02;;;;;;;;;;5060482;28;20052;-75
2023/08/18 11:12:58;;;;;;;16.23;7.45;;;;;;;;;;5062348;28;20060;-82
2023/08/18 11:15:30;;;;;;;17.88;7.68;;;;;;;;;;5061699;28;20159;-75
2023/08/18 11:18:01;;;;;;;16.98;7.95;;;;;;;;;;5060248;28;20048;-75
2023/08/18 11:20:31;;;;;;;13.85;6.72;;;;;;;;;;5061369;28;20519;-75
2023/08/18 11:23:01;;;;;;;15.35;7.68;;;;;;;;;;5062494;28;20055;-76
2023/08/18 11:25:32;;;;;;;15.75;6.95;;;;;;;;;;5060012;28;20052;-77
2023/08/18 11:28:06;;;;;;;14.70;6.03;;;;;;;;;;5061757;28;20052;-74
2023/08/18 11:30:37;;;;;;;19.20;7.70;;;;;;;;;;5061611;28;20056;-74
2023/08/18 11:33:08;;;;;;;14.70;6.88;;;;;;;;;;5061278;28;20048;-75
2023/08/18 11:35:38;;;;;;;16.38;7.15;;;;;;;;;;5062146;28;20063;-76
2023/08/18 11:38:09;;;;;;;12.15;6.63;;;;;;;;;;5061955;28;20059;-75
2023/08/18 11:40:42;;;;;;;11.05;6.20;;;;;;;;;;5062573;28;20040;-77
2023/08/18 11:43:16;;;;;;;12.45;6.18;;;;;;;;;;5061659;28;20055;-74
2023/08/18 11:45:46;;;;;;;12.07;6.20;;;;;;;;;;5061095;28;20062;-76
2023/08/18 11:48:20;;;;;;;12.00;6.53;;;;;;;;;;5061430;28;20055;-75
2023/08/18 11:50:56;;;;;;;10.98;6.80;;;;;;;;;;5061563;28;20415;-76
2023/08/18 11:53:28;;;;;;;12.43;6.93;;;;;;;;;;5067757;28;20813;-76
2023/08/18 11:55:58;;;;;;;12.55;6.72;;;;;;;;;;5068704;28;20048;-75
2023/08/18 11:58:29;;;;;;;15.15;6.10;;;;;;;;;;5067226;28;20075;-76
2023/08/18 12:01:04;;;;;;;9.80;6.20;;;;;;;;;;5065724;28;20063;-75
2023/08/18 12:03:35;;;;;;;11.52;6.28;;;;;;;;;;5065928;28;20064;-77
2023/08/18 12:06:05;;;;;;;9.57;5.60;;;;;;;;;;5063928;28;20533;-74
2023/08/18 12:08:35;;;;;;;15.90;6.25;;;;;;;;;;5065063;28;20060;-76
2023/08/18 12:11:06;;;;;;;9.57;5.35;;;;;;;;;;5065154;28;20048;-79
2023/08/18 12:13:37;;;;;;;13.88;6.30;;;;;;;;;;5063440;28;20056;-76
2023/08/18 12:16:06;;;;;;;10.32;5.70;;;;;;;;;;5063909;28;20051;-76
2023/08/18 12:18:37;;;;;;;10.57;6.28;;;;;;;;;;5065637;28;20040;-75
2023/08/18 12:21:08;;;;;;;11.45;6.13;;;;;;;;;;5064852;28;20056;-76
2023/08/18 12:23:39;;;;;;;12.88;6.38;;;;;;;;;;5065366;28;20052;-74
2023/08/18 12:26:10;;;;;;;15.32;6.32;;;;;;;;;;5065438;28;20604;-76
2023/08/18 12:28:40;;;;;;;16.45;6.93;;;;;;;;;;5065090;28;20460;-75
2023/08/18 12:31:10;;;;;;;8.23;6.13;;;;;;;;;;5064924;28;20055;-75
2023/08/18 12:33:41;;;;;;;14.25;5.65;;;;;;;;;;5064424;28;20154;-75
2023/08/18 12:36:12;;;;;;;11.40;6.65;;;;;;;;;;5064645;28;20048;-74
2023/08/18 12:38:43;;;;;;;10.27;7.15;;;;;;;;;;5065437;28;20525;-75
2023/08/18 12:41:15;;;;;;;12.30;7.35;;;;;;;;;;5065173;28;20056;-75
2023/08/18 12:43:45;;;;;;;19.40;8.55;;;;;;;;;;5066259;28;20036;-76
2023/08/18 12:46:16;;;;;;;10.25;6.80;;;;;;;;;;5065050;28;20044;-75
2023/08/18 12:48:46;;;;;;;11.20;6.78;;;;;;;;;;5065002;28;20598;-75
2023/08/18 12:51:17;;;;;;;11.77;6.60;;;;;;;;;;5065030;28;20430;-76
2023/08/18 12:53:51;;;;;;;10.88;5.90;;;;;;;;;;5065310;28;20060;-75
2023/08/18 12:56:25;;;;;;;12.23;6.57;;;;;;;;;;5065136;28;20044;-76
2023/08/18 12:58:56;;;;;;;12.60;7.47;;;;;;;;;;5063771;28;20048;-75
2023/08/18 13:01:26;;;;;;;12.20;6.20;;;;;;;;;;5064644;28;20750;-75
2023/08/18 13:03:56;;;;;;;11.60;6.03;;;;;;;;;;5062624;28;20052;-76
2023/08/18 13:06:27;;;;;;;10.18;5.22;;;;;;;;;;5061098;28;20063;-77
2023/08/18 13:08:58;;;;;;;9.77;5.60;;;;;;;;;;5061578;28;20590;-75
2023/08/18 13:11:28;;;;;;;12.98;5.65;;;;;;;;;;5061892;28;20044;-75
2023/08/18 13:13:59;;;;;;;9.60;6.05;;;;;;;;;;5059919;28;20049;-74
2023/08/18 13:16:29;;;;;;;6.70;5.22;;;;;;;;;;5061326;28;20049;-75
2023/08/18 13:19:02;;;;;;;10.48;5.30;;;;;;;;;;5061667;28;20048;-74
2023/08/18 13:21:32;;;;;;;13.68;5.70;;;;;;;;;;5061429;28;20052;-74
2023/08/18 13:24:03;;;;;;;15.60;5.35;;;;;;;;;;5061811;28;20055;-74
2023/08/18 13:26:34;;;;;;;6.80;4.45;;;;;;;;;;5061724;28;20049;-75
2023/08/18 13:29:08;;;;;;;17.48;5.88;;;;;;;;;;5061545;28;20052;-75
2023/08/18 13:31:38;;;;;;;15.35;5.63;;;;;;;;;;5062092;28;20055;-75
2023/08/18 13:34:09;;;;;;;11.90;6.10;;;;;;;;;;5060897;28;20049;-74
2023/08/18 13:36:40;;;;;;;9.90;5.18;;;;;;;;;;5061484;28;20044;-77
2023/08/18 13:39:12;;;;;;;17.95;5.68;;;;;;;;;;5061211;28;20044;-75
2023/08/18 13:41:42;;;;;;;9.82;5.30;;;;;;;;;;5061688;28;20048;-74
2023/08/18 13:44:15;;;;;;;14.82;5.25;;;;;;;;;;5060838;28;20507;-75
2023/08/18 13:46:45;;;;;;;11.15;5.10;;;;;;;;;;5061877;28;20080;-77
2023/08/18 13:49:17;;;;;;;11.32;5.20;;;;;;;;;;5059093;28;20044;-76
2023/08/18 13:51:49;;;;;;;10.50;5.30;;;;;;;;;;5060339;28;20056;-75
2023/08/18 13:54:19;;;;;;;11.45;5.15;;;;;;;;;;5060858;28;20041;-80
2023/08/18 13:56:49;;;;;;;9.25;4.82;;;;;;;;;;5059389;28;20052;-76
2023/08/18 13:59:20;;;;;;;14.70;5.35;;;;;;;;;;5060899;28;20049;-76
2023/08/18 14:01:51;;;;;;;10.07;4.75;;;;;;;;;;5060746;28;20056;-77
2023/08/18 14:04:22;;;;;;;9.93;4.50;;;;;;;;;;5060070;28;20507;-76
2023/08/18 14:06:53;;;;;;;10.65;5.00;;;;;;;;;;5060614;28;20067;-81
2023/08/18 14:09:26;;;;;;;11.88;4.93;;;;;;;;;;5060454;28;20063;-74
2023/08/18 14:12:00;;;;;;;7.75;4.43;;;;;;;;;;5059572;28;20533;-77
2023/08/18 14:14:31;;;;;;;12.05;4.80;;;;;;;;;;5059996;28;20059;-76
2023/08/18 14:17:06;;;;;;;13.98;4.60;;;;;;;;;;5060251;28;20057;-77
2023/08/18 14:19:37;;;;;;;10.05;4.38;;;;;;;;;;5058958;28;20053;-76
2023/08/18 14:22:08;;;;;;;12.25;4.72;;;;;;;;;;5059922;28;20068;-76
2023/08/18 14:24:38;;;;;;;9.10;4.03;;;;;;;;;;5061321;28;20048;-76
2023/08/18 14:27:12;;;;;;;9.38;4.65;;;;;;;;;;5060341;28;20820;-75
2023/08/18 14:29:43;;;;;;;13.63;3.58;;;;;;;;;;5060127;28;20055;-76
2023/08/18 14:32:13;;;;;;;6.60;3.63;;;;;;;;;;5060249;28;20048;-75
2023/08/18 14:34:46;;;;;;;9.98;3.92;;;;;;;;;;5059086;28;20055;-75
2023/08/18 14:37:16;;;;;;;10.77;4.13;;;;;;;;;;5059662;28;20048;-77
2023/08/18 14:39:46;;;;;;;8.75;4.28;;;;;;;;;;5060244;28;20534;-78
2023/08/18 14:42:17;;;;;;;13.38;3.90;;;;;;;;;;5060841;28;20515;-75
2023/08/18 14:44:48;;;;;;;12.15;4.00;;;;;;;;;;5059953;28;20063;-75
2023/08/18 14:47:19;;;;;;;9.93;4.20;;;;;;;;;;5059609;28;20483;-75
2023/08/18 14:49:49;;;;;;;9.70;4.15;;;;;;;;;;5058639;28;20048;-76
2023/08/18 14:52:21;;;;;;;9.75;4.53;;;;;;;;;;5060274;28;20316;-74
2023/08/18 14:54:52;;;;;;;9.02;3.88;;;;;;;;;;5057762;28;20462;-74
2023/08/18 14:57:25;;;;;;;7.35;4.13;;;;;;;;;;5058676;28;20059;-74